createdAt,value
2022-10-04T00:00:14.183Z,17.20
2022-10-04T00:02:49.482Z,17.38
2022-10-04T00:05:23.343Z,16.99
2022-10-04T00:07:58.979Z,17.34
2022-10-04T00:10:33.293Z,17.43
2022-10-04T00:13:06.851Z,17.22
2022-10-04T00:15:37.934Z,17.34
2022-10-04T00:18:25.650Z,17.36
2022-10-04T00:21:03.722Z,17.29
2022-10-04T00:23:54.683Z,17.33
2022-10-04T00:27:13.085Z,17.33
2022-10-04T00:29:43.550Z,17.44
2022-10-04T00:32:30.986Z,17.32
2022-10-04T00:35:02.445Z,17.38
2022-10-04T00:37:59.578Z,17.26
2022-10-04T00:40:33.205Z,17.51
2022-10-04T00:43:06.971Z,17.59
2022-10-04T00:45:41.275Z,17.54
2022-10-04T00:48:35.291Z,17.51
2022-10-04T00:51:24.290Z,17.21
2022-10-04T00:54:05.980Z,17.11
2022-10-04T00:56:42.516Z,17.42
2022-10-04T00:59:32.566Z,17.20
2022-10-04T01:12:16.757Z,16.75
2022-10-04T02:19:09.242Z,15.93
2022-10-04T02:36:47.229Z,15.74
2022-10-04T03:10:44.365Z,15.49
2022-10-04T03:40:12.854Z,15.07
2022-10-04T03:48:59.700Z,14.94
2022-10-04T03:59:36.800Z,14.69
2022-10-04T04:02:17.203Z,14.61
2022-10-04T04:05:06.259Z,14.33
2022-10-04T04:07:41.367Z,14.24
2022-10-04T04:10:22.136Z,13.88
2022-10-04T04:12:58.655Z,14.24
2022-10-04T04:15:35.049Z,13.96
2022-10-04T04:18:06.926Z,14.17
2022-10-04T04:20:38.814Z,14.32
2022-10-04T04:23:24.238Z,14.43
2022-10-04T04:25:57.181Z,14.16
2022-10-04T04:28:32.153Z,14.02
2022-10-04T04:31:08.120Z,13.99
2022-10-04T04:33:46.279Z,14.28
2022-10-04T04:36:19.982Z,14.15
2022-10-04T04:39:06.197Z,13.91
2022-10-04T04:41:36.832Z,13.93
2022-10-04T04:44:16.295Z,14.09
2022-10-04T04:46:49.011Z,13.73
2022-10-04T04:49:19.990Z,14.21
2022-10-04T04:51:52.178Z,14.20
2022-10-04T04:54:26.921Z,14.16
2022-10-04T04:56:58.941Z,14.14
2022-10-04T04:59:29.526Z,13.84
2022-10-04T05:02:04.359Z,14.05
2022-10-04T05:04:34.145Z,14.14
2022-10-04T05:07:09.146Z,14.20
2022-10-04T05:09:41.175Z,14.14
2022-10-04T05:12:24.902Z,14.01
2022-10-04T05:14:55.704Z,14.12
2022-10-04T05:17:33.705Z,14.09
2022-10-04T05:20:08.196Z,13.89
2022-10-04T05:22:38.219Z,14.09
2022-10-04T05:25:16.892Z,14.08
2022-10-04T05:27:48.301Z,14.07
2022-10-04T05:30:44.424Z,14.04
2022-10-04T05:33:24.874Z,14.17
2022-10-04T05:36:38.220Z,14.14
2022-10-04T05:39:17.094Z,14.15
2022-10-04T05:41:59.003Z,14.19
2022-10-04T05:44:30.733Z,13.86
2022-10-04T05:47:06.775Z,14.10
2022-10-04T05:49:47.499Z,14.13
2022-10-04T05:52:45.093Z,13.99
2022-10-04T05:55:29.525Z,13.67
2022-10-04T05:58:29.409Z,13.49
2022-10-04T06:01:15.649Z,13.73
2022-10-04T06:04:14.793Z,13.77
2022-10-04T06:06:52.558Z,13.63
2022-10-04T06:10:14.073Z,13.86
2022-10-04T06:12:56.488Z,13.59
2022-10-04T06:15:57.374Z,13.88
2022-10-04T06:19:19.863Z,13.90
2022-10-04T06:22:08.023Z,13.61
2022-10-04T06:24:49.052Z,13.88
2022-10-04T06:27:31.169Z,14.00
2022-10-04T06:30:05.547Z,13.84
2022-10-04T06:33:08.672Z,13.84
2022-10-04T06:36:21.616Z,14.12
2022-10-04T06:39:29.700Z,14.02
2022-10-04T06:42:33.954Z,14.30
2022-10-04T06:45:24.109Z,14.38
2022-10-04T06:48:32.634Z,14.15
2022-10-04T06:51:15.843Z,14.57
2022-10-04T06:53:59.186Z,14.62
2022-10-04T06:57:08.386Z,14.75
2022-10-04T07:00:15.535Z,14.65
2022-10-04T07:02:52.484Z,15.06
2022-10-04T07:05:31.962Z,15.14
2022-10-04T07:08:14.039Z,15.14
2022-10-04T07:10:55.599Z,15.33
2022-10-04T07:13:41.700Z,15.61
2022-10-04T07:16:29.176Z,15.59
2022-10-04T07:19:27.499Z,14.96
2022-10-04T07:22:12.414Z,15.66
2022-10-04T07:25:03.882Z,15.91
2022-10-04T07:27:38.887Z,15.96
2022-10-04T07:30:16.045Z,16.18
2022-10-04T07:32:48.404Z,16.47
2022-10-04T07:35:25.996Z,15.80
2022-10-04T07:38:01.992Z,16.34
2022-10-04T07:40:36.058Z,16.80
2022-10-04T07:43:09.310Z,16.81
2022-10-04T07:45:43.138Z,16.90
2022-10-04T07:48:24.333Z,17.08
2022-10-04T07:51:09.523Z,17.69
2022-10-04T07:53:46.050Z,17.83
2022-10-04T07:56:24.184Z,17.44
2022-10-04T07:59:12.029Z,17.39
2022-10-04T08:01:56.284Z,17.60
2022-10-04T08:04:40.009Z,17.54
2022-10-04T08:07:22.215Z,16.99
2022-10-04T08:10:04.313Z,17.26
2022-10-04T08:12:49.067Z,17.21
2022-10-04T08:16:01.618Z,17.46
2022-10-04T08:18:47.162Z,18.19
2022-10-04T08:21:26.812Z,17.81
2022-10-04T08:24:17.742Z,18.37
2022-10-04T08:27:04.714Z,17.94
2022-10-04T08:29:58.380Z,18.42
2022-10-04T08:33:02.200Z,18.26
2022-10-04T08:35:45.334Z,18.24
2022-10-04T08:38:45.082Z,18.43
2022-10-04T08:42:04.791Z,18.60
2022-10-04T08:45:38.952Z,17.88
2022-10-04T08:49:05.140Z,18.16
2022-10-04T08:52:27.992Z,18.62
2022-10-04T08:55:58.507Z,18.31
2022-10-04T08:59:06.964Z,18.82
2022-10-04T09:02:19.719Z,18.99
2022-10-04T09:05:40.687Z,19.43
2022-10-04T09:09:11.543Z,19.78
2022-10-04T09:12:14.740Z,20.07
2022-10-04T09:15:05.035Z,19.66
2022-10-04T09:17:51.050Z,20.01
2022-10-04T09:20:38.819Z,19.99
2022-10-04T09:23:39.076Z,20.11
2022-10-04T09:26:23.890Z,20.58
2022-10-04T09:29:35.468Z,20.45
2022-10-04T09:32:41.053Z,20.18
2022-10-04T09:35:59.869Z,20.09
2022-10-04T09:39:30.366Z,19.77
2022-10-04T09:43:07.566Z,20.13
2022-10-04T09:46:08.332Z,20.59
2022-10-04T09:48:45.588Z,21.08
2022-10-04T09:51:54.768Z,21.02
2022-10-04T09:54:55.153Z,20.67
2022-10-04T09:57:39.468Z,21.34
2022-10-04T10:00:25.378Z,21.37
2022-10-04T10:03:36.585Z,21.16
2022-10-04T10:06:41.978Z,20.97
2022-10-04T10:09:46.025Z,21.38
2022-10-04T10:13:13.992Z,20.88
2022-10-04T10:16:00.980Z,21.00
2022-10-04T10:18:49.331Z,21.55
2022-10-04T10:21:54.497Z,21.49
2022-10-04T10:25:20.435Z,20.68
2022-10-04T10:28:08.013Z,20.51
2022-10-04T10:31:09.234Z,21.50
2022-10-04T10:34:31.316Z,21.06
2022-10-04T10:37:26.584Z,21.48
2022-10-04T10:40:42.276Z,21.37
2022-10-04T10:44:03.754Z,21.13
2022-10-04T10:47:24.241Z,21.50
2022-10-04T10:50:19.972Z,21.17
2022-10-04T10:53:32.158Z,21.70
2022-10-04T10:56:47.203Z,22.25
2022-10-04T11:00:16.624Z,21.67
2022-10-04T11:03:23.922Z,21.80
2022-10-04T11:06:49.592Z,22.08
2022-10-04T11:09:55.151Z,22.63
2022-10-04T11:13:08.842Z,21.91
2022-10-04T11:16:22.747Z,22.52
2022-10-04T11:19:42.631Z,21.91
2022-10-04T11:23:09.920Z,22.12
2022-10-04T11:26:22.688Z,21.84
2022-10-04T11:29:01.791Z,22.47
2022-10-04T11:32:45.631Z,22.68
2022-10-04T11:35:55.875Z,22.73
2022-10-04T11:38:59.106Z,22.07
2022-10-04T11:41:51.462Z,22.10
2022-10-04T11:45:20.624Z,22.12
2022-10-04T11:48:04.446Z,22.74
2022-10-04T11:51:03.879Z,23.37
2022-10-04T11:54:29.972Z,23.43
2022-10-04T11:57:27.971Z,23.25
2022-10-04T12:00:14.595Z,23.49
2022-10-04T12:03:32.055Z,23.75
2022-10-04T12:06:23.447Z,23.19
2022-10-04T12:09:18.931Z,23.21
2022-10-04T12:12:41.062Z,23.09
2022-10-04T12:15:54.302Z,23.29
2022-10-04T12:19:10.803Z,22.95
2022-10-04T12:22:03.996Z,23.60
2022-10-04T12:25:09.352Z,23.81
2022-10-04T12:28:39.847Z,23.69
2022-10-04T12:31:26.612Z,24.22
2022-10-04T12:34:06.379Z,23.94
2022-10-04T12:37:03.752Z,22.96
2022-10-04T12:39:49.627Z,23.58
2022-10-04T12:42:32.656Z,23.86
2022-10-04T12:45:40.961Z,23.60
2022-10-04T12:48:29.626Z,23.82
2022-10-04T12:51:16.362Z,22.91
2022-10-04T12:53:58.488Z,23.45
2022-10-04T12:56:50.972Z,23.86
2022-10-04T12:59:42.090Z,23.87
2022-10-04T13:02:31.836Z,23.79
2022-10-04T13:05:15.421Z,24.01
2022-10-04T13:08:21.592Z,23.81
2022-10-04T13:11:32.288Z,23.49
2022-10-04T13:14:39.935Z,23.65
2022-10-04T13:17:35.740Z,23.66
2022-10-04T13:20:39.887Z,23.87
2022-10-04T13:23:24.037Z,23.36
2022-10-04T13:29:10.609Z,24.25
2022-10-04T13:31:50.122Z,24.06
2022-10-04T13:34:42.279Z,24.45
2022-10-04T13:37:35.621Z,24.53
2022-10-04T13:40:45.725Z,23.63
2022-10-04T13:43:54.795Z,23.91
2022-10-04T13:46:41.615Z,24.24
2022-10-04T13:49:31.672Z,23.69
2022-10-04T13:52:36.117Z,24.90
2022-10-04T13:55:46.132Z,25.19
2022-10-04T13:58:32.362Z,24.66
2022-10-04T14:01:28.858Z,24.51
2022-10-04T14:04:28.266Z,24.38
2022-10-04T14:07:39.263Z,24.66
2022-10-04T14:10:59.586Z,24.12
2022-10-04T14:13:57.697Z,24.51
2022-10-04T14:16:56.261Z,24.84
2022-10-04T14:20:20.516Z,24.38
2022-10-04T14:23:34.952Z,24.01
2022-10-04T14:26:38.817Z,23.20
2022-10-04T14:29:35.777Z,23.73
2022-10-04T14:32:56.621Z,24.60
2022-10-04T14:35:33.587Z,24.20
2022-10-04T14:38:30.428Z,24.28
2022-10-04T14:41:33.775Z,24.06
2022-10-04T14:44:53.369Z,23.78
2022-10-04T14:47:43.740Z,23.98
2022-10-04T14:50:31.304Z,24.29
2022-10-04T14:53:18.658Z,24.30
2022-10-04T14:56:40.321Z,23.79
2022-10-04T14:59:29.772Z,23.49
2022-10-04T15:02:48.284Z,23.44
2022-10-04T15:05:46.164Z,23.86
2022-10-04T15:09:04.318Z,23.77
2022-10-04T15:15:37.408Z,23.58
2022-10-04T15:18:28.225Z,22.75
2022-10-04T15:21:07.468Z,22.98
2022-10-04T15:23:41.885Z,23.38
2022-10-04T15:26:55.424Z,23.57
2022-10-04T15:29:41.446Z,23.34
2022-10-04T15:32:35.604Z,22.77
2022-10-04T15:35:21.273Z,23.27
2022-10-04T15:38:01.471Z,22.71
2022-10-04T15:40:49.611Z,22.71
2022-10-04T15:43:27.148Z,22.25
2022-10-04T15:46:42.478Z,22.35
2022-10-04T15:49:37.335Z,22.38
2022-10-04T15:52:34.705Z,22.39
2022-10-04T15:55:20.497Z,21.91
2022-10-04T15:58:23.270Z,21.84
2022-10-04T16:01:19.780Z,22.53
2022-10-04T16:04:24.730Z,22.04
2022-10-04T16:06:59.717Z,22.09
2022-10-04T16:09:39.671Z,22.31
2022-10-04T16:12:24.587Z,21.88
2022-10-04T16:15:19.838Z,22.35
2022-10-04T16:18:35.237Z,21.79
2022-10-04T16:21:19.423Z,22.19
2022-10-04T16:23:48.201Z,21.74
2022-10-04T16:27:14.906Z,22.37
2022-10-04T16:30:25.997Z,21.98
2022-10-04T16:33:30.464Z,21.29
2022-10-04T16:36:15.434Z,20.71
2022-10-04T16:39:10.304Z,21.52
2022-10-04T16:41:44.823Z,21.59
2022-10-04T16:44:34.756Z,21.19
2022-10-04T16:47:21.897Z,21.45
2022-10-04T16:49:56.236Z,21.79
2022-10-04T16:52:55.270Z,21.59
2022-10-04T16:55:54.252Z,21.46
2022-10-04T16:58:52.685Z,20.91
2022-10-04T17:02:00.234Z,21.10
2022-10-04T17:05:19.757Z,21.29
2022-10-04T17:08:25.490Z,21.14
2022-10-04T17:11:38.384Z,21.12
2022-10-04T17:14:54.482Z,21.04
2022-10-04T17:17:38.916Z,21.25
2022-10-04T17:20:29.597Z,20.98
2022-10-04T17:23:20.042Z,20.88
2022-10-04T17:26:02.943Z,20.66
2022-10-04T17:28:50.069Z,20.53
2022-10-04T17:31:30.402Z,21.23
2022-10-04T17:34:10.480Z,20.88
2022-10-04T17:36:48.663Z,21.25
2022-10-04T17:39:45.395Z,21.10
2022-10-04T17:42:38.080Z,20.89
2022-10-04T17:45:32.655Z,20.74
2022-10-04T17:48:41.798Z,20.52
2022-10-04T17:52:03.632Z,20.66
2022-10-04T17:54:59.439Z,20.62
2022-10-04T17:57:40.521Z,20.52
2022-10-04T18:00:15.747Z,20.62
2022-10-04T18:03:11.582Z,21.08
2022-10-04T18:05:53.169Z,20.83
2022-10-04T18:08:46.820Z,20.95
2022-10-04T18:11:28.478Z,21.00
2022-10-04T18:14:06.980Z,20.79
2022-10-04T18:16:52.735Z,20.48
2022-10-04T18:19:43.105Z,20.86
2022-10-04T18:22:17.854Z,20.72
2022-10-04T18:25:15.223Z,20.57
2022-10-04T18:28:07.203Z,21.00
2022-10-04T18:30:59.615Z,20.89
2022-10-04T18:34:11.571Z,20.81
2022-10-04T18:36:57.345Z,20.43
2022-10-04T18:39:27.561Z,20.80
2022-10-04T18:42:25.058Z,20.64
2022-10-04T18:45:04.552Z,20.69
2022-10-04T18:47:42.604Z,20.49
2022-10-04T18:50:29.560Z,20.75
2022-10-04T18:53:28.787Z,20.16
2022-10-04T18:56:01.832Z,20.52
2022-10-04T18:59:25.410Z,20.56
2022-10-04T19:02:09.356Z,19.95
2022-10-04T19:04:53.661Z,20.04
2022-10-04T19:07:38.173Z,20.46
2022-10-04T19:10:27.999Z,20.71
2022-10-04T19:13:26.259Z,20.21
2022-10-04T19:16:26.108Z,20.15
2022-10-04T19:19:08.326Z,20.12
2022-10-04T19:21:51.931Z,20.51
2022-10-04T19:24:58.090Z,20.67
2022-10-04T19:27:36.489Z,20.38
2022-10-04T19:30:17.390Z,20.42
2022-10-04T19:33:07.468Z,20.90
2022-10-04T19:35:58.557Z,20.48
2022-10-04T19:38:45.609Z,20.16
2022-10-04T19:41:28.524Z,20.30
2022-10-04T19:44:07.591Z,20.24
2022-10-04T19:46:45.028Z,20.59
2022-10-04T19:49:26.237Z,20.39
2022-10-04T19:52:04.013Z,20.27
2022-10-04T19:54:41.284Z,20.65
2022-10-04T19:57:15.701Z,20.69
2022-10-04T19:59:48.530Z,20.48
2022-10-04T20:02:18.232Z,20.33
2022-10-04T20:04:51.490Z,20.49
2022-10-04T20:07:25.437Z,20.50
2022-10-04T20:09:59.533Z,20.82
2022-10-04T20:12:39.157Z,20.73
2022-10-04T20:15:27.651Z,20.57
2022-10-04T20:17:58.543Z,20.07
2022-10-04T20:21:10.760Z,19.89
2022-10-04T20:23:58.784Z,20.11
2022-10-04T20:26:56.228Z,20.10
2022-10-04T20:30:06.943Z,20.52
2022-10-04T20:32:58.625Z,20.26
2022-10-04T20:36:22.717Z,20.47
2022-10-04T20:38:59.609Z,20.31
2022-10-04T20:42:02.030Z,19.90
2022-10-04T20:44:55.428Z,20.33
2022-10-04T20:47:46.307Z,20.29
2022-10-04T20:50:32.487Z,20.00
2022-10-04T20:53:06.830Z,20.68
2022-10-04T20:55:40.244Z,20.20
2022-10-04T20:58:33.005Z,20.43
2022-10-04T21:01:24.463Z,20.73
2022-10-04T21:03:53.283Z,20.38
2022-10-04T21:06:22.143Z,20.17
2022-10-04T21:08:52.465Z,19.74
2022-10-04T21:11:22.179Z,20.25
2022-10-04T21:13:55.147Z,20.03
2022-10-04T21:16:44.953Z,20.11
2022-10-04T21:19:50.326Z,20.26
2022-10-04T21:22:39.619Z,19.70
2022-10-04T21:25:34.010Z,19.90
2022-10-04T21:28:35.851Z,19.91
2022-10-04T21:31:05.425Z,20.07
2022-10-04T21:33:35.699Z,19.71
2022-10-04T21:36:05.658Z,20.12
2022-10-04T21:38:34.073Z,19.90
2022-10-04T21:41:04.362Z,19.74
2022-10-04T21:43:33.031Z,20.39
2022-10-04T21:46:01.670Z,19.63
2022-10-04T21:48:30.437Z,19.95
2022-10-04T21:50:59.176Z,19.83
2022-10-04T21:53:28.509Z,20.06
2022-10-04T21:55:57.395Z,19.91
2022-10-04T21:58:27.869Z,19.74
2022-10-04T22:00:56.811Z,19.98
2022-10-04T22:03:25.466Z,19.86
2022-10-04T22:05:54.185Z,20.11
2022-10-04T22:08:22.672Z,20.00
2022-10-04T22:10:55.476Z,20.06
2022-10-04T22:13:27.448Z,19.87
2022-10-04T22:15:56.387Z,19.36
2022-10-04T22:18:25.329Z,19.96
2022-10-04T22:20:53.847Z,20.17
2022-10-04T22:23:25.863Z,19.90
2022-10-04T22:25:56.098Z,20.31
2022-10-04T22:28:28.053Z,20.46
2022-10-04T22:30:57.740Z,20.26
2022-10-04T22:33:33.982Z,20.00
2022-10-04T22:36:17.673Z,19.66
2022-10-04T22:38:52.777Z,20.44
2022-10-04T22:41:21.766Z,20.16
2022-10-04T22:43:52.083Z,20.31
2022-10-04T22:46:21.883Z,20.02
2022-10-04T22:48:50.925Z,19.96
2022-10-04T22:51:19.337Z,20.07
2022-10-04T22:53:48.942Z,20.41
2022-10-04T22:56:17.790Z,19.82
2022-10-04T22:58:46.238Z,20.14
2022-10-04T23:01:19.505Z,20.43
2022-10-04T23:03:50.353Z,19.91
2022-10-04T23:06:18.783Z,20.55
2022-10-04T23:08:47.358Z,20.14
2022-10-04T23:11:15.714Z,20.18
2022-10-04T23:13:44.015Z,19.93
2022-10-04T23:16:19.751Z,20.03
2022-10-04T23:18:48.304Z,19.85
2022-10-04T23:21:23.910Z,20.09
2022-10-04T23:23:54.906Z,20.14
2022-10-04T23:26:26.079Z,20.03
2022-10-04T23:28:54.766Z,19.73
2022-10-04T23:31:27.197Z,19.66
2022-10-04T23:33:58.180Z,19.57
2022-10-04T23:36:26.591Z,19.75
2022-10-04T23:39:00.114Z,20.04
2022-10-04T23:41:28.814Z,19.86
2022-10-04T23:43:57.154Z,20.05
2022-10-04T23:46:26.929Z,19.93
2022-10-04T23:48:55.419Z,19.98
2022-10-04T23:51:23.802Z,19.70
2022-10-04T23:53:52.343Z,19.52
2022-10-04T23:56:24.414Z,20.02
2022-10-04T23:58:56.403Z,20.10
